sensor_id;sensor_type;location;lat;lon;timestamp;temperature;humidity
16076;DHT22;8142;48.242;11.644;2024-01-30T00:01:30;1.50;99.90
16076;DHT22;8142;48.242;11.644;2024-01-30T00:03:56;1.50;99.90
16076;DHT22;8142;48.242;11.644;2024-01-30T00:06:22;1.50;99.90
16076;DHT22;8142;48.242;11.644;2024-01-30T00:08:49;1.50;99.90
16076;DHT22;8142;48.242;11.644;2024-01-30T00:11:17;1.50;99.90
16076;DHT22;8142;48.242;11.644;2024-01-30T00:13:43;1.50;99.90
16076;DHT22;8142;48.242;11.644;2024-01-30T00:16:20;1.50;99.90
16076;DHT22;8142;48.242;11.644;2024-01-30T00:18:46;1.50;99.90
16076;DHT22;8142;48.242;11.644;2024-01-30T00:21:12;1.40;99.90
16076;DHT22;8142;48.242;11.644;2024-01-30T00:23:38;1.40;99.90
16076;DHT22;8142;48.242;11.644;2024-01-30T00:26:04;1.40;99.90
16076;DHT22;8142;48.242;11.644;2024-01-30T00:28:30;1.40;99.90
16076;DHT22;8142;48.242;11.644;2024-01-30T00:30:57;1.30;99.90
16076;DHT22;8142;48.242;11.644;2024-01-30T00:33:23;1.30;99.90
16076;DHT22;8142;48.242;11.644;2024-01-30T00:35:50;1.30;99.90
16076;DHT22;8142;48.242;11.644;2024-01-30T00:38:17;1.30;99.90
16076;DHT22;8142;48.242;11.644;2024-01-30T00:40:43;1.30;99.90
16076;DHT22;8142;48.242;11.644;2024-01-30T00:43:09;1.00;99.90
16076;DHT22;8142;48.242;11.644;2024-01-30T00:45:35;1.30;99.90
16076;DHT22;8142;48.242;11.644;2024-01-30T00:48:01;1.20;99.90
16076;DHT22;8142;48.242;11.644;2024-01-30T00:50:27;1.30;99.90
16076;DHT22;8142;48.242;11.644;2024-01-30T00:52:53;1.20;99.90
16076;DHT22;8142;48.242;11.644;2024-01-30T00:55:19;1.30;99.90
16076;DHT22;8142;48.242;11.644;2024-01-30T00:57:48;1.30;99.90
16076;DHT22;8142;48.242;11.644;2024-01-30T01:00:15;1.30;99.90
16076;DHT22;8142;48.242;11.644;2024-01-30T01:02:45;1.30;99.90
16076;DHT22;8142;48.242;11.644;2024-01-30T01:05:11;1.30;99.90
16076;DHT22;8142;48.242;11.644;2024-01-30T01:07:37;1.30;99.90
16076;DHT22;8142;48.242;11.644;2024-01-30T01:10:03;1.20;99.90
16076;DHT22;8142;48.242;11.644;2024-01-30T01:12:29;1.20;99.90
16076;DHT22;8142;48.242;11.644;2024-01-30T01:14:55;1.20;99.90
16076;DHT22;8142;48.242;11.644;2024-01-30T01:17:21;1.20;99.90
16076;DHT22;8142;48.242;11.644;2024-01-30T01:19:48;1.40;99.90
16076;DHT22;8142;48.242;11.644;2024-01-30T01:22:16;1.20;99.90
16076;DHT22;8142;48.242;11.644;2024-01-30T01:24:43;1.20;99.90
16076;DHT22;8142;48.242;11.644;2024-01-30T01:27:09;1.10;99.90
16076;DHT22;8142;48.242;11.644;2024-01-30T01:29:35;1.10;99.90
16076;DHT22;8142;48.242;11.644;2024-01-30T01:32:01;1.10;99.90
16076;DHT22;8142;48.242;11.644;2024-01-30T01:34:27;1.10;99.90
16076;DHT22;8142;48.242;11.644;2024-01-30T01:36:53;1.10;99.90
16076;DHT22;8142;48.242;11.644;2024-01-30T01:39:22;1.10;99.90
16076;DHT22;8142;48.242;11.644;2024-01-30T01:41:49;1.10;99.90
16076;DHT22;8142;48.242;11.644;2024-01-30T01:44:18;1.10;99.90
16076;DHT22;8142;48.242;11.644;2024-01-30T01:46:46;1.10;99.90
16076;DHT22;8142;48.242;11.644;2024-01-30T01:49:12;1.00;99.90
16076;DHT22;8142;48.242;11.644;2024-01-30T01:51:39;1.00;99.90
16076;DHT22;8142;48.242;11.644;2024-01-30T01:54:07;1.00;99.90
16076;DHT22;8142;48.242;11.644;2024-01-30T01:56:34;1.00;99.90
16076;DHT22;8142;48.242;11.644;2024-01-30T01:59:05;1.00;99.90
16076;DHT22;8142;48.242;11.644;2024-01-30T02:01:39;0.90;99.90
16076;DHT22;8142;48.242;11.644;2024-01-30T02:04:07;0.90;99.90
16076;DHT22;8142;48.242;11.644;2024-01-30T02:06:34;0.90;99.90
16076;DHT22;8142;48.242;11.644;2024-01-30T02:09:02;0.90;99.90
16076;DHT22;8142;48.242;11.644;2024-01-30T02:11:30;0.90;99.90
16076;DHT22;8142;48.242;11.644;2024-01-30T02:13:57;1.00;99.90
16076;DHT22;8142;48.242;11.644;2024-01-30T02:16:27;1.00;99.90
16076;DHT22;8142;48.242;11.644;2024-01-30T02:18:53;0.90;99.90
16076;DHT22;8142;48.242;11.644;2024-01-30T02:21:19;1.00;99.90
16076;DHT22;8142;48.242;11.644;2024-01-30T02:23:46;0.90;99.90
16076;DHT22;8142;48.242;11.644;2024-01-30T02:26:13;0.90;99.90
16076;DHT22;8142;48.242;11.644;2024-01-30T02:28:39;0.90;99.90
16076;DHT22;8142;48.242;11.644;2024-01-30T02:31:06;0.90;99.90
16076;DHT22;8142;48.242;11.644;2024-01-30T02:33:33;0.90;99.90
16076;DHT22;8142;48.242;11.644;2024-01-30T02:35:58;0.90;99.90
16076;DHT22;8142;48.242;11.644;2024-01-30T02:38:24;0.90;99.90
16076;DHT22;8142;48.242;11.644;2024-01-30T02:40:52;1.00;99.90
16076;DHT22;8142;48.242;11.644;2024-01-30T02:43:18;1.00;99.90
16076;DHT22;8142;48.242;11.644;2024-01-30T02:45:44;1.00;99.90
16076;DHT22;8142;48.242;11.644;2024-01-30T02:48:10;1.00;99.90
16076;DHT22;8142;48.242;11.644;2024-01-30T02:50:37;1.00;99.90
16076;DHT22;8142;48.242;11.644;2024-01-30T02:53:05;0.90;99.90
16076;DHT22;8142;48.242;11.644;2024-01-30T02:55:31;0.90;99.90
16076;DHT22;8142;48.242;11.644;2024-01-30T02:57:57;0.90;99.90
16076;DHT22;8142;48.242;11.644;2024-01-30T03:00:23;0.90;99.90
16076;DHT22;8142;48.242;11.644;2024-01-30T03:02:49;0.90;99.90
16076;DHT22;8142;48.242;11.644;2024-01-30T03:05:15;0.90;99.90
16076;DHT22;8142;48.242;11.644;2024-01-30T03:07:41;0.90;99.90
16076;DHT22;8142;48.242;11.644;2024-01-30T03:10:08;0.80;99.90
16076;DHT22;8142;48.242;11.644;2024-01-30T03:12:34;0.90;99.90
16076;DHT22;8142;48.242;11.644;2024-01-30T03:15:01;0.80;99.90
16076;DHT22;8142;48.242;11.644;2024-01-30T03:17:33;0.80;99.90
16076;DHT22;8142;48.242;11.644;2024-01-30T03:20:00;0.80;99.90
16076;DHT22;8142;48.242;11.644;2024-01-30T03:22:25;0.80;99.90
16076;DHT22;8142;48.242;11.644;2024-01-30T03:24:51;0.80;99.90
16076;DHT22;8142;48.242;11.644;2024-01-30T03:27:17;0.80;99.90
16076;DHT22;8142;48.242;11.644;2024-01-30T03:29:43;0.80;99.90
16076;DHT22;8142;48.242;11.644;2024-01-30T03:32:09;0.70;99.90
16076;DHT22;8142;48.242;11.644;2024-01-30T03:34:35;0.60;99.90
16076;DHT22;8142;48.242;11.644;2024-01-30T03:37:01;0.50;99.90
16076;DHT22;8142;48.242;11.644;2024-01-30T03:39:28;0.20;99.90
16076;DHT22;8142;48.242;11.644;2024-01-30T03:41:55;0.00;99.90
16076;DHT22;8142;48.242;11.644;2024-01-30T03:44:21;-0.30;99.90
16076;DHT22;8142;48.242;11.644;2024-01-30T03:46:47;-0.50;99.90
16076;DHT22;8142;48.242;11.644;2024-01-30T03:49:13;-0.70;99.90
16076;DHT22;8142;48.242;11.644;2024-01-30T03:51:39;-0.80;99.90
16076;DHT22;8142;48.242;11.644;2024-01-30T03:54:05;-1.00;99.90
16076;DHT22;8142;48.242;11.644;2024-01-30T03:56:31;-1.20;99.90
16076;DHT22;8142;48.242;11.644;2024-01-30T03:58:56;-1.30;99.90
16076;DHT22;8142;48.242;11.644;2024-01-30T04:01:24;-1.40;99.90
16076;DHT22;8142;48.242;11.644;2024-01-30T04:03:51;-1.50;99.90
16076;DHT22;8142;48.242;11.644;2024-01-30T04:06:17;-1.60;99.90
16076;DHT22;8142;48.242;11.644;2024-01-30T04:08:43;-1.70;99.90
16076;DHT22;8142;48.242;11.644;2024-01-30T04:11:11;-1.70;99.90
16076;DHT22;8142;48.242;11.644;2024-01-30T04:13:37;-1.80;99.90
16076;DHT22;8142;48.242;11.644;2024-01-30T04:16:03;-1.90;99.90
16076;DHT22;8142;48.242;11.644;2024-01-30T04:18:29;-1.90;99.90
16076;DHT22;8142;48.242;11.644;2024-01-30T04:20:55;-2.00;99.90
16076;DHT22;8142;48.242;11.644;2024-01-30T04:23:21;-2.00;99.90
16076;DHT22;8142;48.242;11.644;2024-01-30T04:25:47;-2.00;99.90
16076;DHT22;8142;48.242;11.644;2024-01-30T04:28:13;-2.00;99.90
16076;DHT22;8142;48.242;11.644;2024-01-30T04:30:40;-2.10;99.90
16076;DHT22;8142;48.242;11.644;2024-01-30T04:33:06;-2.10;99.90
16076;DHT22;8142;48.242;11.644;2024-01-30T04:35:31;-2.20;99.90
16076;DHT22;8142;48.242;11.644;2024-01-30T04:37:57;-2.20;99.90
16076;DHT22;8142;48.242;11.644;2024-01-30T04:40:23;-2.20;99.90
16076;DHT22;8142;48.242;11.644;2024-01-30T04:42:49;-2.30;99.90
16076;DHT22;8142;48.242;11.644;2024-01-30T04:45:15;-2.30;99.90
16076;DHT22;8142;48.242;11.644;2024-01-30T04:47:41;-2.30;99.90
16076;DHT22;8142;48.242;11.644;2024-01-30T04:50:07;-2.30;99.90
16076;DHT22;8142;48.242;11.644;2024-01-30T04:52:35;-2.30;99.90
16076;DHT22;8142;48.242;11.644;2024-01-30T04:55:01;-2.30;99.90
16076;DHT22;8142;48.242;11.644;2024-01-30T04:57:27;-2.40;99.90
16076;DHT22;8142;48.242;11.644;2024-01-30T04:59:53;-2.40;99.90
16076;DHT22;8142;48.242;11.644;2024-01-30T05:02:19;-2.40;99.90
16076;DHT22;8142;48.242;11.644;2024-01-30T05:04:45;-2.40;99.90
16076;DHT22;8142;48.242;11.644;2024-01-30T05:07:11;-2.40;99.90
16076;DHT22;8142;48.242;11.644;2024-01-30T05:09:37;-2.40;99.90
16076;DHT22;8142;48.242;11.644;2024-01-30T05:12:03;-2.40;99.90
16076;DHT22;8142;48.242;11.644;2024-01-30T05:14:29;-2.40;99.90
16076;DHT22;8142;48.242;11.644;2024-01-30T05:16:55;-2.30;99.90
16076;DHT22;8142;48.242;11.644;2024-01-30T05:19:21;-2.30;99.90
16076;DHT22;8142;48.242;11.644;2024-01-30T05:21:49;-2.30;99.90
16076;DHT22;8142;48.242;11.644;2024-01-30T05:24:15;-2.30;99.90
16076;DHT22;8142;48.242;11.644;2024-01-30T05:26:41;-2.30;99.90
16076;DHT22;8142;48.242;11.644;2024-01-30T05:29:07;-2.30;99.90
16076;DHT22;8142;48.242;11.644;2024-01-30T05:31:34;-2.20;99.90
16076;DHT22;8142;48.242;11.644;2024-01-30T05:34:00;-2.10;99.90
16076;DHT22;8142;48.242;11.644;2024-01-30T05:36:26;-1.90;99.90
16076;DHT22;8142;48.242;11.644;2024-01-30T05:38:52;-1.70;99.90
16076;DHT22;8142;48.242;11.644;2024-01-30T05:41:18;-1.60;99.90
16076;DHT22;8142;48.242;11.644;2024-01-30T05:43:44;-1.50;99.90
16076;DHT22;8142;48.242;11.644;2024-01-30T05:46:13;-1.30;99.90
16076;DHT22;8142;48.242;11.644;2024-01-30T05:48:39;-1.20;99.90
16076;DHT22;8142;48.242;11.644;2024-01-30T05:51:06;-1.10;99.90
16076;DHT22;8142;48.242;11.644;2024-01-30T05:53:32;-0.90;99.90
16076;DHT22;8142;48.242;11.644;2024-01-30T05:55:58;-0.90;99.90
16076;DHT22;8142;48.242;11.644;2024-01-30T05:58:24;-0.80;99.90
16076;DHT22;8142;48.242;11.644;2024-01-30T06:00:50;-0.70;99.90
16076;DHT22;8142;48.242;11.644;2024-01-30T06:03:16;-0.60;99.90
16076;DHT22;8142;48.242;11.644;2024-01-30T06:05:42;-0.60;99.90
16076;DHT22;8142;48.242;11.644;2024-01-30T06:08:08;-0.50;99.90
16076;DHT22;8142;48.242;11.644;2024-01-30T06:10:34;-0.40;99.90
16076;DHT22;8142;48.242;11.644;2024-01-30T06:13:01;-0.30;99.90
16076;DHT22;8142;48.242;11.644;2024-01-30T06:15:27;-0.30;99.90
16076;DHT22;8142;48.242;11.644;2024-01-30T06:17:55;-0.30;99.90
16076;DHT22;8142;48.242;11.644;2024-01-30T06:20:21;-0.30;99.90
16076;DHT22;8142;48.242;11.644;2024-01-30T06:22:47;-0.20;99.90
16076;DHT22;8142;48.242;11.644;2024-01-30T06:25:13;-0.10;99.90
16076;DHT22;8142;48.242;11.644;2024-01-30T06:27:39;-0.10;99.90
16076;DHT22;8142;48.242;11.644;2024-01-30T06:30:05;-0.10;99.90
16076;DHT22;8142;48.242;11.644;2024-01-30T06:32:31;-0.10;99.90
16076;DHT22;8142;48.242;11.644;2024-01-30T06:35:00;-0.10;99.90
16076;DHT22;8142;48.242;11.644;2024-01-30T06:37:26;0.00;99.90
16076;DHT22;8142;48.242;11.644;2024-01-30T06:39:52;-0.10;99.90
16076;DHT22;8142;48.242;11.644;2024-01-30T06:42:18;0.00;99.90
16076;DHT22;8142;48.242;11.644;2024-01-30T06:44:44;0.00;99.90
16076;DHT22;8142;48.242;11.644;2024-01-30T06:47:10;0.00;99.90
16076;DHT22;8142;48.242;11.644;2024-01-30T06:49:37;0.00;99.90
16076;DHT22;8142;48.242;11.644;2024-01-30T06:52:05;0.00;99.90
16076;DHT22;8142;48.242;11.644;2024-01-30T06:54:32;0.00;99.90
16076;DHT22;8142;48.242;11.644;2024-01-30T06:56:58;-0.10;99.90
16076;DHT22;8142;48.242;11.644;2024-01-30T06:59:24;0.00;99.90
16076;DHT22;8142;48.242;11.644;2024-01-30T07:01:50;0.00;99.90
16076;DHT22;8142;48.242;11.644;2024-01-30T07:04:16;0.00;99.90
16076;DHT22;8142;48.242;11.644;2024-01-30T07:06:43;0.00;99.90
16076;DHT22;8142;48.242;11.644;2024-01-30T07:09:09;0.10;99.90
16076;DHT22;8142;48.242;11.644;2024-01-30T07:11:35;0.10;99.90
16076;DHT22;8142;48.242;11.644;2024-01-30T07:14:01;0.10;99.90
16076;DHT22;8142;48.242;11.644;2024-01-30T07:16:30;-0.10;99.90
16076;DHT22;8142;48.242;11.644;2024-01-30T07:18:56;-0.20;99.90
16076;DHT22;8142;48.242;11.644;2024-01-30T07:21:22;-0.40;99.90
16076;DHT22;8142;48.242;11.644;2024-01-30T07:23:54;-0.50;99.90
16076;DHT22;8142;48.242;11.644;2024-01-30T07:26:21;-0.70;99.90
16076;DHT22;8142;48.242;11.644;2024-01-30T07:28:47;-0.80;99.90
16076;DHT22;8142;48.242;11.644;2024-01-30T07:31:13;-0.90;99.90
16076;DHT22;8142;48.242;11.644;2024-01-30T07:33:38;-1.00;99.90
16076;DHT22;8142;48.242;11.644;2024-01-30T07:36:05;-1.10;99.90
16076;DHT22;8142;48.242;11.644;2024-01-30T07:38:34;-1.20;99.90
16076;DHT22;8142;48.242;11.644;2024-01-30T07:41:00;-1.20;99.90
16076;DHT22;8142;48.242;11.644;2024-01-30T07:43:26;-1.30;99.90
16076;DHT22;8142;48.242;11.644;2024-01-30T07:45:51;-1.30;99.90
16076;DHT22;8142;48.242;11.644;2024-01-30T07:48:18;-1.30;99.90
16076;DHT22;8142;48.242;11.644;2024-01-30T07:50:44;-1.30;99.90
16076;DHT22;8142;48.242;11.644;2024-01-30T07:53:10;-1.30;99.90
16076;DHT22;8142;48.242;11.644;2024-01-30T07:55:36;-1.20;99.90
16076;DHT22;8142;48.242;11.644;2024-01-30T07:58:02;-1.10;99.90
16076;DHT22;8142;48.242;11.644;2024-01-30T08:00:30;-1.00;99.90
16076;DHT22;8142;48.242;11.644;2024-01-30T08:02:56;-0.90;99.90
16076;DHT22;8142;48.242;11.644;2024-01-30T08:05:23;-0.80;99.90
16076;DHT22;8142;48.242;11.644;2024-01-30T08:07:49;-0.50;99.90
16076;DHT22;8142;48.242;11.644;2024-01-30T08:10:15;-0.30;99.90
16076;DHT22;8142;48.242;11.644;2024-01-30T08:12:43;-0.10;99.90
16076;DHT22;8142;48.242;11.644;2024-01-30T08:15:11;0.00;99.90
16076;DHT22;8142;48.242;11.644;2024-01-30T08:17:37;0.40;99.90
16076;DHT22;8142;48.242;11.644;2024-01-30T08:20:04;0.30;99.90
16076;DHT22;8142;48.242;11.644;2024-01-30T08:22:30;0.50;99.90
16076;DHT22;8142;48.242;11.644;2024-01-30T08:24:56;0.60;99.90
16076;DHT22;8142;48.242;11.644;2024-01-30T08:27:22;0.70;99.90
16076;DHT22;8142;48.242;11.644;2024-01-30T08:29:48;0.80;99.90
16076;DHT22;8142;48.242;11.644;2024-01-30T08:32:15;0.90;99.90
16076;DHT22;8142;48.242;11.644;2024-01-30T08:34:42;0.90;99.90
16076;DHT22;8142;48.242;11.644;2024-01-30T08:37:07;1.00;99.90
16076;DHT22;8142;48.242;11.644;2024-01-30T08:39:33;1.10;99.90
16076;DHT22;8142;48.242;11.644;2024-01-30T08:42:00;1.10;99.90
16076;DHT22;8142;48.242;11.644;2024-01-30T08:44:26;1.30;99.90
16076;DHT22;8142;48.242;11.644;2024-01-30T08:46:53;1.40;99.90
16076;DHT22;8142;48.242;11.644;2024-01-30T08:49:20;1.40;99.90
16076;DHT22;8142;48.242;11.644;2024-01-30T08:51:46;1.50;99.90
16076;DHT22;8142;48.242;11.644;2024-01-30T08:54:13;1.60;99.90
16076;DHT22;8142;48.242;11.644;2024-01-30T08:56:38;1.60;99.90
16076;DHT22;8142;48.242;11.644;2024-01-30T08:59:04;1.70;99.90
16076;DHT22;8142;48.242;11.644;2024-01-30T09:01:30;1.70;99.90
16076;DHT22;8142;48.242;11.644;2024-01-30T09:03:56;1.80;99.90
16076;DHT22;8142;48.242;11.644;2024-01-30T09:06:23;1.90;99.90
16076;DHT22;8142;48.242;11.644;2024-01-30T09:08:50;1.90;99.90
16076;DHT22;8142;48.242;11.644;2024-01-30T09:11:16;2.00;99.90
16076;DHT22;8142;48.242;11.644;2024-01-30T09:13:42;2.10;99.90
16076;DHT22;8142;48.242;11.644;2024-01-30T09:16:09;2.10;99.90
16076;DHT22;8142;48.242;11.644;2024-01-30T09:18:35;2.20;99.90
16076;DHT22;8142;48.242;11.644;2024-01-30T09:21:01;2.20;99.90
16076;DHT22;8142;48.242;11.644;2024-01-30T09:23:27;2.30;99.90
16076;DHT22;8142;48.242;11.644;2024-01-30T09:25:54;2.30;99.90
16076;DHT22;8142;48.242;11.644;2024-01-30T09:28:20;2.40;99.90
16076;DHT22;8142;48.242;11.644;2024-01-30T09:30:46;2.40;99.90
16076;DHT22;8142;48.242;11.644;2024-01-30T09:33:12;2.50;99.90
16076;DHT22;8142;48.242;11.644;2024-01-30T09:35:38;2.50;99.90
16076;DHT22;8142;48.242;11.644;2024-01-30T09:38:04;2.60;99.90
16076;DHT22;8142;48.242;11.644;2024-01-30T09:40:30;2.60;99.90
16076;DHT22;8142;48.242;11.644;2024-01-30T09:42:56;2.70;99.90
16076;DHT22;8142;48.242;11.644;2024-01-30T09:45:26;2.70;99.90
16076;DHT22;8142;48.242;11.644;2024-01-30T09:47:52;2.80;99.90
16076;DHT22;8142;48.242;11.644;2024-01-30T09:50:19;2.80;99.90
16076;DHT22;8142;48.242;11.644;2024-01-30T09:52:46;2.90;99.90
16076;DHT22;8142;48.242;11.644;2024-01-30T09:55:13;2.90;99.90
16076;DHT22;8142;48.242;11.644;2024-01-30T09:57:39;2.90;99.90
16076;DHT22;8142;48.242;11.644;2024-01-30T10:00:07;3.00;99.90
16076;DHT22;8142;48.242;11.644;2024-01-30T10:02:35;3.00;99.90
16076;DHT22;8142;48.242;11.644;2024-01-30T10:05:01;3.10;99.90
16076;DHT22;8142;48.242;11.644;2024-01-30T10:07:28;3.10;99.90
16076;DHT22;8142;48.242;11.644;2024-01-30T10:09:54;3.20;99.90
16076;DHT22;8142;48.242;11.644;2024-01-30T10:12:22;3.30;99.90
16076;DHT22;8142;48.242;11.644;2024-01-30T10:14:48;3.30;99.90
16076;DHT22;8142;48.242;11.644;2024-01-30T10:17:14;3.30;99.90
16076;DHT22;8142;48.242;11.644;2024-01-30T10:19:41;3.40;99.90
16076;DHT22;8142;48.242;11.644;2024-01-30T10:22:09;3.40;99.90
16076;DHT22;8142;48.242;11.644;2024-01-30T10:24:35;3.50;99.90
16076;DHT22;8142;48.242;11.644;2024-01-30T10:27:01;3.60;99.90
16076;DHT22;8142;48.242;11.644;2024-01-30T10:29:27;3.60;99.90
16076;DHT22;8142;48.242;11.644;2024-01-30T10:32:00;3.70;99.90
16076;DHT22;8142;48.242;11.644;2024-01-30T10:34:26;3.70;99.90
16076;DHT22;8142;48.242;11.644;2024-01-30T10:37:08;3.80;99.90
16076;DHT22;8142;48.242;11.644;2024-01-30T10:39:45;3.90;99.90
16076;DHT22;8142;48.242;11.644;2024-01-30T10:42:15;4.00;99.90
16076;DHT22;8142;48.242;11.644;2024-01-30T10:45:07;4.00;99.90
16076;DHT22;8142;48.242;11.644;2024-01-30T10:47:44;4.10;99.90
16076;DHT22;8142;48.242;11.644;2024-01-30T10:50:14;4.30;99.90
16076;DHT22;8142;48.242;11.644;2024-01-30T10:52:41;4.20;99.90
16076;DHT22;8142;48.242;11.644;2024-01-30T10:55:11;4.30;99.90
16076;DHT22;8142;48.242;11.644;2024-01-30T10:57:37;4.30;99.90
16076;DHT22;8142;48.242;11.644;2024-01-30T11:00:11;4.40;99.90
16076;DHT22;8142;48.242;11.644;2024-01-30T11:02:40;4.50;99.90
16076;DHT22;8142;48.242;11.644;2024-01-30T11:05:08;4.60;99.90
16076;DHT22;8142;48.242;11.644;2024-01-30T11:07:34;4.60;99.90
16076;DHT22;8142;48.242;11.644;2024-01-30T11:10:02;4.70;99.90
16076;DHT22;8142;48.242;11.644;2024-01-30T11:12:31;4.70;99.90
16076;DHT22;8142;48.242;11.644;2024-01-30T11:15:16;4.80;99.90
16076;DHT22;8142;48.242;11.644;2024-01-30T11:20:11;4.90;99.90
16076;DHT22;8142;48.242;11.644;2024-01-30T11:22:37;4.90;99.90
16076;DHT22;8142;48.242;11.644;2024-01-30T11:25:04;5.20;99.90
16076;DHT22;8142;48.242;11.644;2024-01-30T11:27:33;5.10;99.90
16076;DHT22;8142;48.242;11.644;2024-01-30T11:30:03;5.20;99.90
16076;DHT22;8142;48.242;11.644;2024-01-30T11:32:29;5.30;99.90
16076;DHT22;8142;48.242;11.644;2024-01-30T11:34:55;5.30;99.90
16076;DHT22;8142;48.242;11.644;2024-01-30T11:37:25;5.40;99.90
16076;DHT22;8142;48.242;11.644;2024-01-30T11:39:53;5.40;99.90
16076;DHT22;8142;48.242;11.644;2024-01-30T11:42:21;5.50;99.90
16076;DHT22;8142;48.242;11.644;2024-01-30T11:44:47;5.60;99.90
16076;DHT22;8142;48.242;11.644;2024-01-30T11:47:14;5.70;99.90
16076;DHT22;8142;48.242;11.644;2024-01-30T11:49:41;5.70;99.90
16076;DHT22;8142;48.242;11.644;2024-01-30T11:52:08;5.80;99.90
16076;DHT22;8142;48.242;11.644;2024-01-30T11:54:34;5.90;99.90
16076;DHT22;8142;48.242;11.644;2024-01-30T11:57:01;6.00;99.90
16076;DHT22;8142;48.242;11.644;2024-01-30T11:59:26;6.00;99.90
16076;DHT22;8142;48.242;11.644;2024-01-30T12:01:52;6.10;99.90
16076;DHT22;8142;48.242;11.644;2024-01-30T12:04:18;6.20;99.90
16076;DHT22;8142;48.242;11.644;2024-01-30T12:06:44;6.30;99.90
16076;DHT22;8142;48.242;11.644;2024-01-30T12:09:10;6.20;99.90
16076;DHT22;8142;48.242;11.644;2024-01-30T12:11:45;6.40;99.90
16076;DHT22;8142;48.242;11.644;2024-01-30T12:14:12;6.50;99.90
16076;DHT22;8142;48.242;11.644;2024-01-30T12:16:39;6.50;99.90
16076;DHT22;8142;48.242;11.644;2024-01-30T12:19:06;6.60;99.90
16076;DHT22;8142;48.242;11.644;2024-01-30T12:21:34;6.70;99.90
16076;DHT22;8142;48.242;11.644;2024-01-30T12:24:01;6.80;99.90
16076;DHT22;8142;48.242;11.644;2024-01-30T12:26:27;6.90;99.90
16076;DHT22;8142;48.242;11.644;2024-01-30T12:28:55;7.00;99.90
16076;DHT22;8142;48.242;11.644;2024-01-30T12:31:28;7.10;99.90
16076;DHT22;8142;48.242;11.644;2024-01-30T12:33:54;7.20;99.90
16076;DHT22;8142;48.242;11.644;2024-01-30T12:36:23;7.30;99.90
16076;DHT22;8142;48.242;11.644;2024-01-30T12:38:50;7.40;99.90
16076;DHT22;8142;48.242;11.644;2024-01-30T12:41:17;7.50;99.90
16076;DHT22;8142;48.242;11.644;2024-01-30T12:43:44;7.50;99.90
16076;DHT22;8142;48.242;11.644;2024-01-30T12:46:11;7.60;99.90
16076;DHT22;8142;48.242;11.644;2024-01-30T12:48:37;7.70;99.90
16076;DHT22;8142;48.242;11.644;2024-01-30T12:51:03;7.70;99.90
16076;DHT22;8142;48.242;11.644;2024-01-30T12:53:30;7.70;99.90
16076;DHT22;8142;48.242;11.644;2024-01-30T12:55:56;7.80;99.90
16076;DHT22;8142;48.242;11.644;2024-01-30T12:58:22;7.80;99.90
16076;DHT22;8142;48.242;11.644;2024-01-30T13:00:48;7.80;99.90
16076;DHT22;8142;48.242;11.644;2024-01-30T13:03:15;7.90;99.90
16076;DHT22;8142;48.242;11.644;2024-01-30T13:05:43;7.90;99.90
16076;DHT22;8142;48.242;11.644;2024-01-30T13:08:09;7.90;99.90
16076;DHT22;8142;48.242;11.644;2024-01-30T13:10:35;8.00;99.90
16076;DHT22;8142;48.242;11.644;2024-01-30T13:13:01;8.00;99.90
16076;DHT22;8142;48.242;11.644;2024-01-30T13:15:28;8.10;99.90
16076;DHT22;8142;48.242;11.644;2024-01-30T13:17:54;8.20;99.90
16076;DHT22;8142;48.242;11.644;2024-01-30T13:20:20;8.20;99.90
16076;DHT22;8142;48.242;11.644;2024-01-30T13:22:48;8.30;99.90
16076;DHT22;8142;48.242;11.644;2024-01-30T13:25:17;8.40;99.90
16076;DHT22;8142;48.242;11.644;2024-01-30T13:27:47;8.40;99.90
16076;DHT22;8142;48.242;11.644;2024-01-30T13:30:14;8.50;99.90
16076;DHT22;8142;48.242;11.644;2024-01-30T13:32:40;8.50;99.90
16076;DHT22;8142;48.242;11.644;2024-01-30T13:35:07;8.60;99.90
16076;DHT22;8142;48.242;11.644;2024-01-30T13:37:33;8.60;99.90
16076;DHT22;8142;48.242;11.644;2024-01-30T13:39:59;8.60;99.90
16076;DHT22;8142;48.242;11.644;2024-01-30T13:42:25;8.60;99.90
16076;DHT22;8142;48.242;11.644;2024-01-30T13:44:51;8.70;99.90
16076;DHT22;8142;48.242;11.644;2024-01-30T13:47:17;8.70;99.90
16076;DHT22;8142;48.242;11.644;2024-01-30T13:49:45;8.70;99.90
16076;DHT22;8142;48.242;11.644;2024-01-30T13:52:13;8.80;99.90
16076;DHT22;8142;48.242;11.644;2024-01-30T13:54:39;8.80;99.90
16076;DHT22;8142;48.242;11.644;2024-01-30T13:57:05;8.80;99.90
16076;DHT22;8142;48.242;11.644;2024-01-30T13:59:33;8.80;99.90
16076;DHT22;8142;48.242;11.644;2024-01-30T14:01:59;9.00;99.90
16076;DHT22;8142;48.242;11.644;2024-01-30T14:04:25;8.90;99.90
16076;DHT22;8142;48.242;11.644;2024-01-30T14:06:51;8.80;99.90
16076;DHT22;8142;48.242;11.644;2024-01-30T14:09:17;8.80;99.90
16076;DHT22;8142;48.242;11.644;2024-01-30T14:11:43;8.80;99.90
16076;DHT22;8142;48.242;11.644;2024-01-30T14:14:10;8.90;99.90
16076;DHT22;8142;48.242;11.644;2024-01-30T14:16:38;8.90;99.90
16076;DHT22;8142;48.242;11.644;2024-01-30T14:19:07;8.80;99.90
16076;DHT22;8142;48.242;11.644;2024-01-30T14:21:33;8.80;99.90
16076;DHT22;8142;48.242;11.644;2024-01-30T14:23:59;8.80;99.90
16076;DHT22;8142;48.242;11.644;2024-01-30T14:26:25;8.80;99.90
16076;DHT22;8142;48.242;11.644;2024-01-30T14:28:50;8.80;99.90
16076;DHT22;8142;48.242;11.644;2024-01-30T14:31:16;8.80;99.90
16076;DHT22;8142;48.242;11.644;2024-01-30T14:33:44;8.70;99.90
16076;DHT22;8142;48.242;11.644;2024-01-30T14:36:14;8.80;99.90
16076;DHT22;8142;48.242;11.644;2024-01-30T14:38:41;8.70;99.90
16076;DHT22;8142;48.242;11.644;2024-01-30T14:41:07;8.60;99.90
16076;DHT22;8142;48.242;11.644;2024-01-30T14:43:33;8.60;99.90
16076;DHT22;8142;48.242;11.644;2024-01-30T14:45:59;8.60;99.90
16076;DHT22;8142;48.242;11.644;2024-01-30T14:48:25;8.60;99.90
16076;DHT22;8142;48.242;11.644;2024-01-30T14:50:52;8.50;99.90
16076;DHT22;8142;48.242;11.644;2024-01-30T14:53:18;8.50;99.90
16076;DHT22;8142;48.242;11.644;2024-01-30T14:55:43;8.50;99.90
16076;DHT22;8142;48.242;11.644;2024-01-30T14:58:10;8.50;99.90
16076;DHT22;8142;48.242;11.644;2024-01-30T15:00:37;8.40;99.90
16076;DHT22;8142;48.242;11.644;2024-01-30T15:03:04;8.40;99.90
16076;DHT22;8142;48.242;11.644;2024-01-30T15:05:30;8.30;99.90
16076;DHT22;8142;48.242;11.644;2024-01-30T15:07:56;8.30;99.90
16076;DHT22;8142;48.242;11.644;2024-01-30T15:10:22;8.30;99.90
16076;DHT22;8142;48.242;11.644;2024-01-30T15:12:48;8.20;99.90
16076;DHT22;8142;48.242;11.644;2024-01-30T15:15:15;8.20;99.90
16076;DHT22;8142;48.242;11.644;2024-01-30T15:17:40;8.10;99.90
16076;DHT22;8142;48.242;11.644;2024-01-30T15:20:07;8.10;99.90
16076;DHT22;8142;48.242;11.644;2024-01-30T15:22:39;8.10;99.90
16076;DHT22;8142;48.242;11.644;2024-01-30T15:25:07;8.10;99.90
16076;DHT22;8142;48.242;11.644;2024-01-30T15:27:33;8.10;99.90
16076;DHT22;8142;48.242;11.644;2024-01-30T15:29:59;8.00;99.90
16076;DHT22;8142;48.242;11.644;2024-01-30T15:32:25;8.00;99.90
16076;DHT22;8142;48.242;11.644;2024-01-30T15:34:51;8.00;99.90
16076;DHT22;8142;48.242;11.644;2024-01-30T15:37:17;7.90;99.90
16076;DHT22;8142;48.242;11.644;2024-01-30T15:39:43;7.80;99.90
16076;DHT22;8142;48.242;11.644;2024-01-30T15:42:09;7.70;99.90